Time;durP1;ratioP1;P1;durP2;ratioP2;P2;SDS_P1;SDS_P2;PMS_P1;PMS_P2;Temp;Humidity;BMP_temperature;BMP_pressure;BME280_temperature;BME280_humidity;BME280_pressure;Samples;Min_cycle;Max_cycle;Signal;HPM_P1;HPM_P2
2022/12/06 00:02:41;;;;;;;13.47;10.67;;;;;;;3.78;100.00;152333.69;4992065;28;20460;-76
2022/12/06 00:05:27;;;;;;;10.43;9.30;;;;;;;3.75;100.00;152325.94;4991399;28;20448;-76
2022/12/06 00:08:12;;;;;;;10.63;9.30;;;;;;;3.74;100.00;152323.34;4989800;28;20473;-76
2022/12/06 00:11:03;;;;;;;10.70;9.60;;;;;;;3.76;100.00;152328.53;4991140;28;20588;-76
2022/12/06 00:13:52;;;;;;;10.30;9.10;;;;;;;3.77;100.00;152331.09;4989909;28;20464;-76
2022/12/06 00:16:39;;;;;;;12.27;9.60;;;;;;;3.76;100.00;152328.53;4982284;28;20437;-76
2022/12/06 00:19:24;;;;;;;10.10;8.67;;;;;;;3.76;100.00;152328.53;4991587;28;20580;-76
2022/12/06 00:22:10;;;;;;;10.37;8.27;;;;;;;3.78;100.00;152333.69;4986498;28;20800;-76
2022/12/06 00:24:55;;;;;;;10.43;8.43;;;;;;;3.77;100.00;152331.09;4994222;28;20404;-76
2022/12/06 00:27:40;;;;;;;9.30;8.30;;;;;;;3.76;100.00;152329.78;4994458;28;20556;-76
2022/12/06 00:30:26;;;;;;;10.47;9.20;;;;;;;3.78;100.00;152333.69;4989442;28;20473;-76
2022/12/06 00:33:13;;;;;;;9.90;8.90;;;;;;;3.77;100.00;152331.09;4993122;28;20464;-76
2022/12/06 00:35:59;;;;;;;9.80;8.33;;;;;;;3.75;100.00;152327.25;4992129;28;20962;-76
2022/12/06 00:38:45;;;;;;;9.23;8.23;;;;;;;3.74;100.00;152323.34;4979871;28;20914;-76
2022/12/06 00:41:30;;;;;;;9.23;8.10;;;;;;;3.74;100.00;152324.66;4996188;28;20440;-77
2022/12/06 00:44:15;;;;;;;9.97;8.33;;;;;;;3.77;100.00;152331.09;4997147;28;20769;-76
2022/12/06 00:47:01;;;;;;;10.60;8.50;;;;;;;3.74;100.00;152323.34;4989287;28;20473;-76
2022/12/06 00:49:48;;;;;;;10.37;9.13;;;;;;;3.67;100.00;152306.66;4994702;28;20452;-77
2022/12/06 00:52:33;;;;;;;11.10;9.03;;;;;;;3.67;100.00;152306.66;4995596;28;20464;-76
2022/12/06 00:55:19;;;;;;;10.77;8.07;;;;;;;3.64;100.00;152300.22;4991421;28;20596;-76
2022/12/06 00:58:04;;;;;;;10.83;8.20;;;;;;;3.60;100.00;152288.66;4995605;28;20463;-77
2022/12/06 01:00:49;;;;;;;9.93;8.03;;;;;;;3.54;100.00;152274.47;4995028;28;20440;-76
2022/12/06 01:03:35;;;;;;;10.53;9.27;;;;;;;3.52;100.00;152269.28;4979316;28;20433;-76
2022/12/06 01:06:24;;;;;;;11.90;8.50;;;;;;;3.46;100.00;152252.59;4995215;28;20468;-76
2022/12/06 01:09:10;;;;;;;11.97;7.90;;;;;;;3.38;100.00;152233.28;4996475;28;20460;-76
2022/12/06 01:11:55;;;;;;;10.30;7.40;;;;;;;3.36;100.00;152228.09;5003425;28;20946;-76
2022/12/06 01:14:41;;;;;;;11.07;9.10;;;;;;;3.30;100.00;152212.69;4994553;28;20448;-76
2022/12/06 01:17:26;;;;;;;10.43;8.87;;;;;;;3.33;100.00;152220.41;4996738;28;20978;-76
2022/12/06 01:20:11;;;;;;;9.53;8.40;;;;;;;3.32;100.00;152217.81;4995929;28;20405;-76
2022/12/06 01:22:58;;;;;;;10.73;8.70;;;;;;;3.34;100.00;152222.97;4987024;28;20456;-76
2022/12/06 01:25:50;;;;;;;9.40;8.00;;;;;;;3.33;100.00;152219.13;4980745;28;20440;-76
2022/12/06 01:28:35;;;;;;;9.53;8.57;;;;;;;3.32;100.00;152217.81;4990588;28;20489;-77
2022/12/06 01:31:20;;;;;;;10.30;8.50;;;;;;;3.26;100.00;152202.38;4997876;28;20770;-77
2022/12/06 01:34:07;;;;;;;9.83;8.43;;;;;;;3.19;100.00;152184.38;4996331;28;20464;-78
2022/12/06 01:36:52;;;;;;;10.33;8.73;;;;;;;3.19;100.00;152183.06;4997520;28;20779;-77
2022/12/06 01:39:39;;;;;;;10.93;8.97;;;;;;;3.15;100.00;152174.03;4998115;28;20583;-77
2022/12/06 01:42:24;;;;;;;9.90;8.13;;;;;;;3.13;100.00;152167.63;4996615;28;20956;-77
2022/12/06 01:45:10;;;;;;;9.67;7.40;;;;;;;3.13;100.00;152168.91;4979605;28;20456;-77
2022/12/06 01:47:56;;;;;;;9.07;7.73;;;;;;;3.14;100.00;152171.50;4995593;28;20468;-77
2022/12/06 01:50:41;;;;;;;10.00;7.90;;;;;;;3.13;100.00;152167.63;4992239;28;20971;-77
2022/12/06 01:53:27;;;;;;;8.13;7.30;;;;;;;3.12;100.00;152166.38;4992528;28;20456;-77
2022/12/06 01:56:14;;;;;;;9.83;7.57;;;;;;;3.14;100.00;152171.50;4994402;28;20429;-75
2022/12/06 01:59:00;;;;;;;10.77;8.37;;;;;;;3.19;100.00;152183.06;5013581;28;20479;-77
2022/12/06 02:01:45;;;;;;;7.97;7.03;;;;;;;3.19;100.00;152184.38;4996380;28;20587;-77
2022/12/06 02:04:31;;;;;;;10.73;8.83;;;;;;;3.25;100.00;152199.81;4992656;28;20425;-77
2022/12/06 02:07:17;;;;;;;9.77;8.40;;;;;;;3.23;100.00;152193.41;4994358;28;20457;-77
2022/12/06 02:10:04;;;;;;;10.40;8.40;;;;;;;3.22;100.00;152192.09;4991079;28;21023;-77
2022/12/06 02:12:54;;;;;;;12.03;9.20;;;;;;;3.23;100.00;152194.63;4987152;28;20525;-77
2022/12/06 02:15:46;;;;;;;13.00;9.77;;;;;;;3.23;100.00;152193.41;4976102;28;20406;-77
2022/12/06 02:18:36;;;;;;;10.13;9.07;;;;;;;3.21;100.00;152189.50;4983912;28;20460;-77
2022/12/06 02:21:29;;;;;;;10.33;8.70;;;;;;;3.22;100.00;152192.09;4987108;28;20441;-77
2022/12/06 02:24:50;;;;;;;11.00;9.00;;;;;;;3.24;100.00;152195.94;4994842;28;20560;-77
2022/12/06 02:27:57;;;;;;;8.77;7.60;;;;;;;3.27;100.00;152203.66;4991251;28;20504;-78
2022/12/06 02:30:47;;;;;;;9.97;7.63;;;;;;;3.26;100.00;152202.38;4981985;28;20702;-77
2022/12/06 02:33:35;;;;;;;8.33;7.17;;;;;;;3.28;100.00;152207.56;4994701;28;20786;-77
2022/12/06 02:36:27;;;;;;;9.17;7.30;;;;;;;3.28;100.00;152207.56;4995421;28;20457;-77
2022/12/06 02:39:16;;;;;;;8.53;7.40;;;;;;;3.28;100.00;152207.56;4992497;28;20481;-77
2022/12/06 02:42:04;;;;;;;9.30;7.80;;;;;;;3.29;100.00;152210.09;4991313;28;20539;-77
2022/12/06 02:44:52;;;;;;;9.67;7.13;;;;;;;3.26;100.00;152202.38;4978179;28;20473;-78
2022/12/06 02:47:38;;;;;;;8.37;6.93;;;;;;;3.28;100.00;152206.25;4991938;28;20476;-77
2022/12/06 02:50:30;;;;;;;8.37;7.43;;;;;;;3.29;100.00;152208.81;4974887;28;20413;-78
2022/12/06 02:53:17;;;;;;;8.53;7.53;;;;;;;3.27;100.00;152204.97;5001852;28;20443;-77
2022/12/06 02:56:03;;;;;;;9.10;7.13;;;;;;;3.29;100.00;152210.09;4977984;28;20515;-77
2022/12/06 02:58:48;;;;;;;8.30;7.37;;;;;;;3.31;100.00;152215.22;4991537;28;20939;-77
2022/12/06 03:01:34;;;;;;;9.47;8.07;;;;;;;3.34;100.00;152222.97;4989538;28;20461;-77
2022/12/06 03:04:31;;;;;;;8.23;7.33;;;;;;;3.34;100.00;152222.97;4990289;28;20523;-78
2022/12/06 03:07:35;;;;;;;8.50;7.70;;;;;;;3.37;100.00;152229.41;4988701;28;20555;-77
2022/12/06 03:10:27;;;;;;;8.93;7.80;;;;;;;3.37;100.00;152229.41;4988386;28;20951;-77
2022/12/06 03:13:15;;;;;;;9.03;7.27;;;;;;;3.39;100.00;152234.59;4990877;28;20576;-77
2022/12/06 03:16:06;;;;;;;8.13;7.33;;;;;;;3.39;100.00;152235.81;4990218;28;20460;-77
2022/12/06 03:18:57;;;;;;;8.13;6.80;;;;;;;3.39;100.00;152235.81;4992952;28;20444;-90
2022/12/06 03:21:47;;;;;;;9.10;7.17;;;;;;;3.39;100.00;152235.81;4994887;28;21001;-91
2022/12/06 03:24:35;;;;;;;6.93;6.20;;;;;;;3.39;100.00;152235.81;4999038;28;20457;-91
2022/12/06 03:27:21;;;;;;;9.20;7.43;;;;;;;3.38;100.00;152233.28;4992467;28;20472;-90
2022/12/06 03:30:09;;;;;;;7.83;7.03;;;;;;;3.39;100.00;152234.59;4990494;28;20819;-90
2022/12/06 03:32:55;;;;;;;8.47;6.70;;;;;;;3.41;100.00;152239.72;4974549;28;20433;-90
2022/12/06 03:35:40;;;;;;;6.73;6.00;;;;;;;3.42;100.00;152243.56;4993756;28;20445;-90
2022/12/06 03:38:31;;;;;;;8.27;6.80;;;;;;;3.42;100.00;152243.56;4993903;28;20567;-90
2022/12/06 03:41:18;;;;;;;8.10;6.57;;;;;;;3.44;100.00;152248.69;4989264;28;20445;-90
2022/12/06 03:44:04;;;;;;;6.90;6.20;;;;;;;3.42;100.00;152242.25;4992626;28;20453;-90
2022/12/06 03:46:53;;;;;;;8.20;6.63;;;;;;;3.39;100.00;152235.81;4988976;28;20495;-91
2022/12/06 03:49:41;;;;;;;7.50;5.90;;;;;;;3.41;100.00;152241.00;4991258;28;20453;-90
2022/12/06 03:52:29;;;;;;;6.80;6.10;;;;;;;3.40;100.00;152238.41;4989122;28;20444;-90
2022/12/06 03:55:15;;;;;;;8.43;7.00;;;;;;;3.39;100.00;152235.81;4994387;28;20417;-90
2022/12/06 03:58:01;;;;;;;8.63;6.90;;;;;;;3.38;100.00;152233.28;4995565;28;20453;-90
2022/12/06 04:00:46;;;;;;;8.17;6.40;;;;;;;3.37;100.00;152230.69;4996887;28;20435;-90
2022/12/06 04:03:31;;;;;;;8.60;7.00;;;;;;;3.38;100.00;152232.00;4975200;28;20542;-90
2022/12/06 04:06:17;;;;;;;7.37;6.67;;;;;;;3.39;100.00;152235.81;4980643;28;20467;-89
2022/12/06 04:12:59;;;;;;;6.87;5.97;;;;;;;3.39;100.00;152234.59;4989301;28;20464;-89
2022/12/06 04:15:10;;;;;;;8.83;7.30;;;;;;;3.36;100.00;152228.09;4991227;28;20433;-90
2022/12/06 04:18:13;;;;;;;7.23;6.27;;;;;;;3.35;100.00;152224.25;4990584;28;20495;-90
2022/12/06 04:24:04;;;;;;;7.60;6.30;;;;;;;3.36;100.00;152226.84;4990774;28;20472;-89
2022/12/06 04:26:50;;;;;;;7.40;6.40;;;;;;;3.34;100.00;152222.97;4973754;28;20421;-90
2022/12/06 04:38:45;;;;;;;7.63;6.33;;;;;;;3.33;100.00;152220.41;4992357;28;20537;-90
2022/12/06 04:44:33;;;;;;;9.27;7.27;;;;;;;3.37;100.00;152230.69;4997326;28;20560;-89
2022/12/06 04:47:20;;;;;;;8.77;7.10;;;;;;;3.36;100.00;152228.09;4976689;28;20523;-90
2022/12/06 04:50:07;;;;;;;7.17;6.47;;;;;;;3.37;100.00;152230.69;4983316;28;20432;-90
2022/12/06 04:52:52;;;;;;;7.57;6.27;;;;;;;3.34;100.00;152221.66;4975566;28;20949;-90
2022/12/06 04:55:38;;;;;;;7.03;6.33;;;;;;;3.29;100.00;152210.09;4987084;28;20935;-90
2022/12/06 04:58:23;;;;;;;7.50;6.40;;;;;;;3.32;100.00;152217.81;4993380;28;20808;-90
2022/12/06 05:01:09;;;;;;;7.00;6.30;;;;;;;3.28;100.00;152207.56;4985643;28;20786;-90
2022/12/06 05:03:55;;;;;;;7.30;6.07;;;;;;;3.30;100.00;152211.41;4964473;28;20452;-90
2022/12/06 05:06:41;;;;;;;7.57;5.90;;;;;;;3.30;100.00;152212.69;4991574;28;20499;-90
2022/12/06 05:09:26;;;;;;;7.70;5.80;;;;;;;3.33;100.00;152219.13;5003490;28;20982;-90
2022/12/06 05:12:11;;;;;;;8.27;6.70;;;;;;;3.35;100.00;152224.25;5001736;28;20447;-91
2022/12/06 05:14:57;;;;;;;9.53;5.67;;;;;;;3.36;100.00;152228.09;4993645;28;20520;-90
2022/12/06 05:17:42;;;;;;;6.53;5.60;;;;;;;3.35;100.00;152224.25;4990843;28;20576;-90
2022/12/06 05:20:29;;;;;;;7.83;6.03;;;;;;;3.35;100.00;152224.25;4991969;28;20428;-90
2022/12/06 05:23:14;;;;;;;8.37;5.93;;;;;;;3.30;100.00;152212.69;4988079;28;20515;-90
2022/12/06 05:26:00;;;;;;;7.23;6.43;;;;;;;3.32;100.00;152217.81;4995700;28;20432;-90
2022/12/06 05:28:46;;;;;;;7.10;6.40;;;;;;;3.33;100.00;152220.41;4979349;28;20484;-90
2022/12/06 05:31:32;;;;;;;6.70;5.10;;;;;;;3.34;100.00;152221.66;4989479;28;20448;-90
2022/12/06 05:34:18;;;;;;;8.17;5.50;;;;;;;3.34;100.00;152222.97;4960802;28;20949;-90
2022/12/06 05:37:05;;;;;;;6.93;6.23;;;;;;;3.34;100.00;152222.97;4971121;28;20521;-90
2022/12/06 05:39:50;;;;;;;6.13;5.53;;;;;;;3.35;100.00;152225.56;4981131;28;20441;-90
2022/12/06 05:42:36;;;;;;;7.13;6.30;;;;;;;3.38;100.00;152232.00;4990570;28;20440;-90
2022/12/06 05:45:22;;;;;;;7.40;5.60;;;;;;;3.40;100.00;152237.13;4986525;28;20950;-90
2022/12/06 05:48:08;;;;;;;7.70;5.70;;;;;;;3.37;100.00;152229.41;4974856;28;20477;-90
2022/12/06 05:50:53;;;;;;;7.57;5.50;;;;;;;3.38;100.00;152233.28;4989590;28;20959;-90
2022/12/06 05:53:40;;;;;;;6.73;5.20;;;;;;;3.35;100.00;152225.56;4984272;28;20951;-90
2022/12/06 05:56:26;;;;;;;7.00;5.20;;;;;;;3.36;100.00;152226.84;4990184;28;20798;-90
2022/12/06 05:59:11;;;;;;;6.90;5.20;;;;;;;3.38;100.00;152233.28;4999555;28;20796;-90
2022/12/06 06:01:56;;;;;;;6.77;5.20;;;;;;;3.37;100.00;152230.69;4998253;28;20421;-89
2022/12/06 06:04:42;;;;;;;7.13;6.40;;;;;;;3.37;100.00;152229.41;4988769;28;20480;-89
2022/12/06 06:07:28;;;;;;;7.60;5.63;;;;;;;3.38;100.00;152233.28;4994375;28;20441;-90
2022/12/06 06:10:15;;;;;;;7.30;5.80;;;;;;;3.38;100.00;152232.00;4994526;28;20472;-90
2022/12/06 06:13:00;;;;;;;7.20;6.33;;;;;;;3.39;100.00;152234.59;4983476;28;20469;-90
2022/12/06 06:15:47;;;;;;;6.20;5.50;;;;;;;3.39;100.00;152235.81;4972647;28;20438;-90
2022/12/06 06:18:33;;;;;;;8.07;6.17;;;;;;;3.39;100.00;152235.81;4962033;28;20533;-90
2022/12/06 06:21:18;;;;;;;6.97;5.53;;;;;;;3.37;100.00;152230.69;4978744;28;20575;-90
2022/12/06 06:24:04;;;;;;;6.13;5.20;;;;;;;3.38;100.00;152233.28;4973279;28;20648;-89
2022/12/06 06:26:50;;;;;;;7.70;5.70;;;;;;;3.36;100.00;152226.84;4959641;28;20953;-90
2022/12/06 06:29:35;;;;;;;7.07;5.80;;;;;;;3.39;100.00;152235.81;4973896;28;20462;-90
2022/12/06 06:32:21;;;;;;;6.70;5.50;;;;;;;3.39;100.00;152234.59;4973578;28;20797;-89
2022/12/06 06:35:07;;;;;;;7.60;5.93;;;;;;;3.38;100.00;152233.28;4968113;28;20457;-90
2022/12/06 06:37:52;;;;;;;8.40;6.60;;;;;;;3.34;100.00;152222.97;4972305;28;20456;-90
2022/12/06 06:40:37;;;;;;;8.63;6.37;;;;;;;3.37;100.00;152230.69;4959309;28;20543;-90
2022/12/06 06:43:24;;;;;;;6.13;5.53;;;;;;;3.39;100.00;152234.59;4973661;28;20929;-90
2022/12/06 06:46:09;;;;;;;8.10;6.23;;;;;;;3.34;100.00;152222.97;4967912;28;20457;-90
2022/12/06 06:48:55;;;;;;;10.10;6.03;;;;;;;3.37;100.00;152229.41;4950106;28;21793;-89
2022/12/06 06:51:40;;;;;;;6.13;5.17;;;;;;;3.36;100.00;152226.84;4963967;28;20460;-90
2022/12/06 06:54:26;;;;;;;7.03;5.97;;;;;;;3.35;100.00;152224.25;4975318;28;20473;-89
2022/12/06 06:57:11;;;;;;;7.53;5.90;;;;;;;3.36;100.00;152226.84;5002261;28;20497;-89
2022/12/06 06:59:58;;;;;;;7.63;5.83;;;;;;;3.37;100.00;152230.69;4975437;28;20453;-89
2022/12/06 07:02:44;;;;;;;7.70;6.37;;;;;;;3.39;100.00;152234.59;4970672;28;20665;-89
2022/12/06 07:05:29;;;;;;;6.90;5.97;;;;;;;3.39;100.00;152234.59;4980896;28;20936;-90
2022/12/06 07:08:15;;;;;;;8.30;6.90;;;;;;;3.36;100.00;152228.09;4991145;28;20527;-91
2022/12/06 07:11:00;;;;;;;9.63;7.17;;;;;;;3.38;100.00;152232.00;4972083;28;20517;-90
2022/12/06 07:13:46;;;;;;;7.70;6.63;;;;;;;3.37;100.00;152230.69;4971819;28;20458;-90
2022/12/06 07:16:33;;;;;;;8.93;7.07;;;;;;;3.37;100.00;152229.41;4962941;28;20504;-90
2022/12/06 07:19:18;;;;;;;8.63;6.40;;;;;;;3.34;100.00;152222.97;4969042;28;20461;-90
2022/12/06 07:22:03;;;;;;;7.83;6.30;;;;;;;3.36;100.00;152226.84;4967116;28;20453;-90
2022/12/06 07:24:49;;;;;;;7.57;6.20;;;;;;;3.36;100.00;152228.09;4968810;28;20444;-90
2022/12/06 07:27:35;;;;;;;6.90;5.77;;;;;;;3.38;100.00;152232.00;4971497;28;20464;-90
2022/12/06 07:30:21;;;;;;;8.43;6.47;;;;;;;3.36;100.00;152228.09;4961946;28;20464;-90
2022/12/06 07:33:07;;;;;;;8.10;5.60;;;;;;;3.37;100.00;152230.69;4950404;28;20981;-91
2022/12/06 07:35:53;;;;;;;7.23;5.70;;;;;;;3.39;100.00;152234.59;4986797;28;20416;-91
2022/12/06 07:38:39;;;;;;;8.53;6.97;;;;;;;3.38;100.00;152232.00;4961497;28;20449;-90
2022/12/06 07:47:43;;;;;;;7.40;6.47;;;;;;;3.43;100.00;152244.84;4969782;28;20533;-91
2022/12/06 07:50:29;;;;;;;8.40;5.80;;;;;;;3.43;100.00;152246.16;4956263;28;20426;-91
2022/12/06 07:53:15;;;;;;;7.10;6.27;;;;;;;3.45;100.00;152250.00;4973261;28;20582;-92
2022/12/06 07:56:06;;;;;;;7.67;6.83;;;;;;;3.45;100.00;152250.00;4974177;28;20489;-91
2022/12/06 07:58:51;;;;;;;7.70;6.33;;;;;;;3.44;100.00;152248.69;4973161;28;20916;-91
2022/12/06 08:01:37;;;;;;;8.10;6.63;;;;;;;3.47;100.00;152256.44;4973733;28;20414;-90
2022/12/06 08:04:22;;;;;;;6.50;5.63;;;;;;;3.46;100.00;152252.59;4954199;29;20486;-91
2022/12/06 08:07:09;;;;;;;6.80;5.93;;;;;;;3.47;100.00;152255.13;4965290;28;20454;-91
2022/12/06 08:09:54;;;;;;;8.30;6.33;;;;;;;3.49;100.00;152261.59;4981105;28;20528;-91
2022/12/06 08:12:40;;;;;;;7.13;6.20;;;;;;;3.50;100.00;152264.16;4966006;28;20490;-90
2022/12/06 08:15:25;;;;;;;6.90;6.20;;;;;;;3.52;100.00;152269.28;4972971;28;20441;-91
2022/12/06 08:18:10;;;;;;;8.93;7.30;;;;;;;3.53;100.00;152271.88;4958681;28;20454;-91
2022/12/06 08:20:57;;;;;;;7.60;6.80;;;;;;;3.52;100.00;152269.28;4972375;28;20450;-90
2022/12/06 08:23:44;;;;;;;7.70;6.87;;;;;;;3.53;100.00;152270.59;4973445;28;20437;-91
2022/12/06 08:26:30;;;;;;;8.30;6.53;;;;;;;3.53;100.00;152271.88;4968159;28;20505;-90
2022/12/06 08:29:15;;;;;;;9.07;7.10;;;;;;;3.58;100.00;152283.47;4989015;28;20616;-91
2022/12/06 08:32:00;;;;;;;6.90;6.13;;;;;;;3.57;100.00;152282.16;4981475;28;20998;-90
2022/12/06 08:34:45;;;;;;;8.30;6.93;;;;;;;3.57;100.00;152282.16;4952691;28;20442;-91
2022/12/06 08:37:31;;;;;;;7.60;6.73;;;;;;;3.58;100.00;152283.47;4972908;28;20429;-90
2022/12/06 08:40:18;;;;;;;9.87;7.17;;;;;;;3.58;100.00;152284.75;4953094;28;20590;-90
2022/12/06 08:43:03;;;;;;;7.70;6.27;;;;;;;3.61;100.00;152292.47;4951319;29;20478;-91
2022/12/06 08:45:51;;;;;;;11.13;8.23;;;;;;;3.62;100.00;152293.78;4974721;28;20849;-91
2022/12/06 08:48:36;;;;;;;8.17;7.23;;;;;;;3.63;100.00;152297.63;4970900;28;20512;-91
2022/12/06 08:51:21;;;;;;;8.77;6.60;;;;;;;3.65;100.00;152302.75;4983131;28;20728;-90
2022/12/06 08:54:08;;;;;;;7.87;6.63;;;;;;;3.71;100.00;152315.69;4966172;28;20926;-90
2022/12/06 08:56:55;;;;;;;7.50;6.27;;;;;;;3.75;100.00;152325.94;4969537;28;20457;-91
2022/12/06 08:59:40;;;;;;;8.10;7.30;;;;;;;3.75;100.00;152327.25;4968902;28;20493;-90
2022/12/06 09:02:25;;;;;;;22.17;15.70;;;;;;;3.79;100.00;152337.53;4973206;28;20465;-91
2022/12/06 09:05:11;;;;;;;31.50;21.23;;;;;;;3.80;100.00;152338.81;4964385;28;20442;-90
2022/12/06 09:07:56;;;;;;;18.83;12.47;;;;;;;3.85;100.00;152351.69;4978298;28;20453;-90
2022/12/06 09:10:42;;;;;;;9.87;6.80;;;;;;;3.87;100.00;152356.81;5000490;28;20929;-90
2022/12/06 09:13:29;;;;;;;6.90;6.20;;;;;;;3.86;100.00;152354.28;4971948;28;20477;-90
2022/12/06 09:16:17;;;;;;;8.77;6.70;;;;;;;3.87;100.00;152358.13;4994471;28;20420;-90
2022/12/06 09:19:02;;;;;;;8.00;6.47;;;;;;;3.86;100.00;152355.56;4976282;28;20453;-90
2022/12/06 09:21:48;;;;;;;9.10;6.30;;;;;;;3.89;100.00;152363.25;4963728;28;20430;-90
2022/12/06 09:24:33;;;;;;;8.60;7.70;;;;;;;3.89;100.00;152363.25;4981656;28;20976;-90
2022/12/06 09:27:19;;;;;;;7.77;6.70;;;;;;;3.87;100.00;152356.81;4979454;28;20516;-90
2022/12/06 09:30:07;;;;;;;9.70;6.60;;;;;;;3.94;100.00;152374.88;4971311;28;20468;-90
2022/12/06 09:32:53;;;;;;;8.80;7.20;;;;;;;3.93;100.00;152372.28;4976669;28;20437;-91
2022/12/06 09:35:38;;;;;;;7.57;6.23;;;;;;;3.93;100.00;152372.28;4976999;28;20429;-91
2022/12/06 09:38:26;;;;;;;9.60;7.37;;;;;;;3.92;100.00;152369.75;4961034;28;20456;-91
2022/12/06 09:41:21;;;;;;;8.57;7.03;;;;;;;3.90;100.00;152364.56;4976179;28;20429;-91
2022/12/06 09:44:15;;;;;;;10.03;8.00;;;;;;;3.94;100.00;152374.88;4949858;29;20939;-90
2022/12/06 09:47:12;;;;;;;9.57;7.87;;;;;;;3.91;100.00;152368.47;4968741;28;20526;-90
2022/12/06 09:50:07;;;;;;;9.53;7.30;;;;;;;3.89;100.00;152363.25;4975915;28;20482;-90
2022/12/06 09:53:13;;;;;;;11.20;8.63;;;;;;;3.90;100.00;152364.56;4976404;28;20446;-91
2022/12/06 09:56:07;;;;;;;9.10;7.57;;;;;;;3.90;100.00;152364.56;4967108;28;20450;-90
2022/12/06 09:59:02;;;;;;;10.13;8.10;;;;;;;3.87;100.00;152356.81;4984096;28;20436;-91
2022/12/06 10:01:56;;;;;;;11.77;9.37;;;;;;;3.88;100.00;152360.72;4994936;28;20417;-90
2022/12/06 10:04:54;;;;;;;10.27;8.10;;;;;;;3.93;100.00;152373.59;4981023;28;20454;-91
2022/12/06 10:07:45;;;;;;;9.73;7.80;;;;;;;3.94;100.00;152374.88;4975387;28;20589;-90
2022/12/06 10:10:39;;;;;;;11.50;8.90;;;;;;;3.91;100.00;152367.16;4978700;28;20466;-90
2022/12/06 10:13:35;;;;;;;9.77;8.30;;;;;;;3.93;100.00;152373.59;4959911;28;20533;-90
2022/12/06 10:16:30;;;;;;;13.00;9.97;;;;;;;3.94;100.00;152374.88;4973714;28;20898;-90
2022/12/06 10:19:22;;;;;;;12.90;9.60;;;;;;;3.94;100.00;152376.19;4955867;28;20462;-90
2022/12/06 10:22:13;;;;;;;11.30;10.10;;;;;;;3.94;100.00;152374.88;4963669;28;20464;-91
2022/12/06 10:25:03;;;;;;;10.60;9.40;;;;;;;3.93;100.00;152372.28;4987623;28;20886;-91
2022/12/06 10:27:54;;;;;;;10.60;8.30;;;;;;;3.93;100.00;152372.28;4975424;28;20449;-91
2022/12/06 10:30:45;;;;;;;15.10;10.53;;;;;;;3.96;100.00;152380.03;4966558;28;20977;-90
2022/12/06 10:33:37;;;;;;;13.10;10.43;;;;;;;3.98;100.00;152385.16;4975010;28;20449;-91
2022/12/06 10:36:32;;;;;;;11.10;9.33;;;;;;;4.03;100.00;152398.03;4975025;28;20534;-90
2022/12/06 10:39:22;;;;;;;14.60;9.73;;;;;;;4.02;100.00;152396.78;4975780;28;20445;-91
2022/12/06 10:42:11;;;;;;;13.27;9.93;;;;;;;4.06;100.00;152405.78;4973751;28;20955;-90
2022/12/06 10:45:00;;;;;;;13.80;10.70;;;;;;;4.08;100.00;152410.91;4970915;28;20451;-90
2022/12/06 10:47:45;;;;;;;13.60;10.10;;;;;;;4.07;100.00;152409.66;4977673;28;21014;-90
2022/12/06 10:50:33;;;;;;;12.30;10.30;;;;;;;4.13;100.00;152423.84;4974318;28;20558;-91
2022/12/06 10:53:20;;;;;;;13.83;10.90;;;;;;;4.17;100.00;152434.13;4974015;28;20650;-91
2022/12/06 10:56:13;;;;;;;11.90;9.80;;;;;;;4.18;100.00;152437.97;4990749;28;20839;-90
2022/12/06 10:59:03;;;;;;;15.10;9.90;;;;;;;4.22;100.00;152447.00;4975251;28;20451;-90
2022/12/06 11:01:50;;;;;;;14.20;8.97;;;;;;;4.29;100.00;152465.00;4974273;28;20546;-91
2022/12/06 11:04:36;;;;;;;12.30;9.10;;;;;;;4.25;100.00;152454.72;4968316;28;20542;-90
2022/12/06 11:07:24;;;;;;;12.00;9.00;;;;;;;4.31;100.00;152470.19;4984834;28;20426;-91
2022/12/06 11:10:18;;;;;;;13.73;9.83;;;;;;;4.34;100.00;152477.94;4974241;28;20453;-90
2022/12/06 11:13:15;;;;;;;12.40;9.87;;;;;;;4.37;100.00;152484.38;4974236;28;20473;-90
2022/12/06 11:16:04;;;;;;;13.40;9.97;;;;;;;4.42;100.00;152498.50;4972775;28;20454;-90
2022/12/06 11:18:50;;;;;;;12.57;9.30;;;;;;;4.47;100.00;152510.13;4975322;28;20474;-90
2022/12/06 11:21:40;;;;;;;12.10;9.50;;;;;;;4.50;100.00;152519.09;4992713;28;20504;-91
2022/12/06 11:24:30;;;;;;;9.80;8.00;;;;;;;4.50;100.00;152519.09;4988819;28;20469;-90
2022/12/06 11:27:21;;;;;;;13.40;9.60;;;;;;;4.54;100.00;152529.44;4965428;28;20489;-91
2022/12/06 11:30:14;;;;;;;14.40;9.33;;;;;;;4.47;100.00;152511.41;4991299;28;20469;-90
2022/12/06 11:33:01;;;;;;;12.60;9.03;;;;;;;4.46;100.00;152508.81;4983610;28;20582;-91
2022/12/06 11:35:47;;;;;;;12.30;9.20;;;;;;;4.44;100.00;152503.69;4985542;28;20457;-90
2022/12/06 11:38:33;;;;;;;10.40;8.60;;;;;;;4.44;100.00;152503.69;4981213;28;20430;-90
2022/12/06 11:41:23;;;;;;;11.67;9.10;;;;;;;4.42;100.00;152497.25;4992255;28;20612;-90
2022/12/06 11:44:13;;;;;;;14.20;9.20;;;;;;;4.41;100.00;152495.94;4990483;28;20453;-90
2022/12/06 11:47:02;;;;;;;11.70;8.00;;;;;;;4.44;100.00;152502.38;4997264;28;20433;-90
2022/12/06 11:49:49;;;;;;;12.13;9.27;;;;;;;4.43;100.00;152501.09;4981819;28;20457;-91
2022/12/06 11:52:37;;;;;;;11.80;9.20;;;;;;;4.39;100.00;152490.81;4973600;28;20585;-91
2022/12/06 11:55:24;;;;;;;13.07;8.60;;;;;;;4.38;100.00;152488.22;4975274;28;20793;-91
2022/12/06 11:58:15;;;;;;;9.93;7.73;;;;;;;4.38;100.00;152486.91;4974619;28;20599;-90
2022/12/06 12:01:02;;;;;;;9.57;7.40;;;;;;;4.40;100.00;152493.34;4983750;28;20448;-90
2022/12/06 12:03:49;;;;;;;9.50;6.40;;;;;;;4.38;100.00;152486.91;4980505;28;20469;-91
2022/12/06 12:06:36;;;;;;;9.80;6.50;;;;;;;4.33;100.00;152475.34;4977469;28;20453;-90
2022/12/06 12:09:29;;;;;;;10.73;7.80;;;;;;;4.30;100.00;152467.59;4975367;28;20481;-90
2022/12/06 12:12:16;;;;;;;8.53;6.07;;;;;;;4.25;100.00;152454.72;4972886;28;20473;-90
2022/12/06 12:15:01;;;;;;;8.40;6.70;;;;;;;4.21;100.00;152444.41;4968216;28;20477;-90
2022/12/06 12:17:48;;;;;;;8.93;6.77;;;;;;;4.21;100.00;152444.41;4988072;28;20453;-90
2022/12/06 12:20:38;;;;;;;8.40;6.70;;;;;;;4.17;100.00;152435.41;4975493;28;20823;-89
2022/12/06 12:23:26;;;;;;;11.07;7.33;;;;;;;4.18;100.00;152436.72;4954113;28;20446;-90
2022/12/06 12:26:14;;;;;;;9.83;6.93;;;;;;;4.18;100.00;152436.72;4983068;28;20500;-90
2022/12/06 12:29:06;;;;;;;9.87;7.27;;;;;;;4.18;100.00;152437.97;4991908;28;20444;-90
2022/12/06 12:31:54;;;;;;;8.03;6.40;;;;;;;4.13;100.00;152425.09;4966373;28;20453;-90
2022/12/06 12:34:39;;;;;;;9.70;6.67;;;;;;;4.15;100.00;152428.97;4972990;28;20403;-91
2022/12/06 12:37:26;;;;;;;9.03;6.67;;;;;;;4.09;100.00;152413.50;4956104;28;20773;-90
2022/12/06 12:40:22;;;;;;;8.43;6.70;;;;;;;4.08;100.00;152410.91;4972703;28;20449;-90
2022/12/06 12:43:14;;;;;;;11.30;7.93;;;;;;;4.05;100.00;152403.22;4961746;28;20442;-91
2022/12/06 12:46:14;;;;;;;8.50;6.43;;;;;;;4.06;100.00;152405.78;4993375;28;20460;-90
2022/12/06 12:49:22;;;;;;;8.87;6.03;;;;;;;4.08;100.00;152410.91;4981718;28;20461;-90
2022/12/06 12:52:28;;;;;;;7.47;5.20;;;;;;;4.07;100.00;152408.38;4993091;28;20413;-90
2022/12/06 12:55:18;;;;;;;7.27;4.90;;;;;;;3.99;100.00;152387.75;4993240;28;20409;-90
2022/12/06 12:58:09;;;;;;;6.33;4.70;;;;;;;4.00;100.00;152391.59;4987517;28;20842;-91
2022/12/06 13:00:57;;;;;;;6.53;5.10;;;;;;;4.02;100.00;152395.50;4987995;28;20424;-90
2022/12/06 13:03:43;;;;;;;5.83;4.80;;;;;;;4.00;100.00;152390.31;4993220;28;20441;-90
2022/12/06 13:06:42;;;;;;;4.77;3.67;;;;;;;3.97;100.00;152382.63;4986237;28;20449;-90
2022/12/06 13:09:35;;;;;;;5.80;4.50;;;;;;;3.97;100.00;152382.63;4970545;28;20552;-90
2022/12/06 13:12:27;;;;;;;5.53;4.57;;;;;;;3.98;100.00;152385.16;4954359;28;20458;-90
2022/12/06 13:15:16;;;;;;;5.83;4.10;;;;;;;3.93;100.00;152372.28;4955244;28;20411;-90
2022/12/06 13:18:07;;;;;;;6.17;4.73;;;;;;;3.92;100.00;152371.00;4974296;28;20466;-90
2022/12/06 13:20:55;;;;;;;6.73;4.80;;;;;;;3.92;100.00;152369.75;4953507;29;20419;-89
2022/12/06 13:23:42;;;;;;;5.63;4.33;;;;;;;3.93;100.00;152373.59;4967535;28;20788;-90